sensor_id;sensor_type;location;lat;lon;timestamp;P1;durP1;ratioP1;P2;durP2;ratioP2
40116;SDS011;25829;50.228;18.936;2022-10-16T00:01:52;19.63;;;13.00;;
40116;SDS011;25829;50.228;18.936;2022-10-16T00:04:53;18.52;;;12.15;;
40116;SDS011;25829;50.228;18.936;2022-10-16T00:07:55;18.52;;;12.02;;
40116;SDS011;25829;50.228;18.936;2022-10-16T00:11:06;17.17;;;11.13;;
40116;SDS011;25829;50.228;18.936;2022-10-16T00:14:11;17.38;;;11.52;;
40116;SDS011;25829;50.228;18.936;2022-10-16T00:17:14;19.63;;;11.65;;
40116;SDS011;25829;50.228;18.936;2022-10-16T00:20:15;15.23;;;10.50;;
40116;SDS011;25829;50.228;18.936;2022-10-16T00:23:16;17.00;;;10.63;;
40116;SDS011;25829;50.228;18.936;2022-10-16T00:26:17;13.98;;;10.40;;
40116;SDS011;25829;50.228;18.936;2022-10-16T00:29:18;14.52;;;9.93;;
40116;SDS011;25829;50.228;18.936;2022-10-16T00:32:19;14.63;;;10.38;;
40116;SDS011;25829;50.228;18.936;2022-10-16T00:35:20;17.27;;;11.13;;
40116;SDS011;25829;50.228;18.936;2022-10-16T00:38:21;16.05;;;10.45;;
40116;SDS011;25829;50.228;18.936;2022-10-16T00:41:23;14.30;;;10.20;;
40116;SDS011;25829;50.228;18.936;2022-10-16T00:47:45;22.08;;;13.55;;
40116;SDS011;25829;50.228;18.936;2022-10-16T00:50:49;21.60;;;13.25;;
40116;SDS011;25829;50.228;18.936;2022-10-16T00:53:50;14.93;;;11.25;;
40116;SDS011;25829;50.228;18.936;2022-10-16T00:56:51;16.70;;;11.77;;
40116;SDS011;25829;50.228;18.936;2022-10-16T00:59:54;27.05;;;16.52;;
40116;SDS011;25829;50.228;18.936;2022-10-16T01:02:56;36.78;;;24.10;;
40116;SDS011;25829;50.228;18.936;2022-10-16T01:13:11;47.80;;;30.95;;
40116;SDS011;25829;50.228;18.936;2022-10-16T01:16:22;44.10;;;30.63;;
40116;SDS011;25829;50.228;18.936;2022-10-16T01:19:50;43.03;;;29.08;;
40116;SDS011;25829;50.228;18.936;2022-10-16T01:26:32;18.08;;;14.18;;
40116;SDS011;25829;50.228;18.936;2022-10-16T01:36:23;17.17;;;10.95;;
40116;SDS011;25829;50.228;18.936;2022-10-16T01:39:29;17.77;;;13.13;;
40116;SDS011;25829;50.228;18.936;2022-10-16T01:42:36;18.10;;;14.00;;
40116;SDS011;25829;50.228;18.936;2022-10-16T01:45:59;15.57;;;12.90;;
40116;SDS011;25829;50.228;18.936;2022-10-16T01:49:02;16.73;;;12.48;;
40116;SDS011;25829;50.228;18.936;2022-10-16T01:52:06;18.27;;;12.63;;
40116;SDS011;25829;50.228;18.936;2022-10-16T01:55:12;16.38;;;11.98;;
40116;SDS011;25829;50.228;18.936;2022-10-16T01:58:17;17.48;;;12.35;;
40116;SDS011;25829;50.228;18.936;2022-10-16T02:01:19;17.30;;;12.73;;
40116;SDS011;25829;50.228;18.936;2022-10-16T02:04:31;17.77;;;12.60;;
40116;SDS011;25829;50.228;18.936;2022-10-16T02:07:36;17.83;;;12.05;;
40116;SDS011;25829;50.228;18.936;2022-10-16T02:10:37;14.43;;;11.95;;
40116;SDS011;25829;50.228;18.936;2022-10-16T02:13:46;16.30;;;11.98;;
40116;SDS011;25829;50.228;18.936;2022-10-16T02:16:51;14.60;;;11.10;;
40116;SDS011;25829;50.228;18.936;2022-10-16T02:19:54;14.80;;;11.20;;
40116;SDS011;25829;50.228;18.936;2022-10-16T02:22:56;15.20;;;11.63;;
40116;SDS011;25829;50.228;18.936;2022-10-16T02:25:58;18.85;;;11.80;;
40116;SDS011;25829;50.228;18.936;2022-10-16T02:29:04;20.33;;;11.57;;
40116;SDS011;25829;50.228;18.936;2022-10-16T02:32:09;17.30;;;11.43;;
40116;SDS011;25829;50.228;18.936;2022-10-16T02:35:13;17.75;;;11.02;;
40116;SDS011;25829;50.228;18.936;2022-10-16T02:38:17;19.70;;;11.88;;
40116;SDS011;25829;50.228;18.936;2022-10-16T02:41:21;13.07;;;11.27;;
40116;SDS011;25829;50.228;18.936;2022-10-16T02:44:23;15.30;;;11.65;;
40116;SDS011;25829;50.228;18.936;2022-10-16T02:47:24;15.15;;;10.52;;
40116;SDS011;25829;50.228;18.936;2022-10-16T02:50:25;12.60;;;10.02;;
40116;SDS011;25829;50.228;18.936;2022-10-16T02:53:26;15.63;;;10.43;;
40116;SDS011;25829;50.228;18.936;2022-10-16T02:56:26;16.88;;;11.68;;
40116;SDS011;25829;50.228;18.936;2022-10-16T02:59:27;16.27;;;12.23;;
40116;SDS011;25829;50.228;18.936;2022-10-16T03:02:28;15.57;;;11.63;;
40116;SDS011;25829;50.228;18.936;2022-10-16T03:05:29;17.27;;;11.10;;
40116;SDS011;25829;50.228;18.936;2022-10-16T03:08:29;16.00;;;11.35;;
40116;SDS011;25829;50.228;18.936;2022-10-16T03:11:30;16.33;;;12.73;;
40116;SDS011;25829;50.228;18.936;2022-10-16T03:14:31;22.70;;;16.75;;
40116;SDS011;25829;50.228;18.936;2022-10-16T03:17:32;23.30;;;19.42;;
40116;SDS011;25829;50.228;18.936;2022-10-16T03:20:33;19.83;;;16.30;;
40116;SDS011;25829;50.228;18.936;2022-10-16T03:23:34;17.13;;;11.70;;
40116;SDS011;25829;50.228;18.936;2022-10-16T03:26:34;16.95;;;11.43;;
40116;SDS011;25829;50.228;18.936;2022-10-16T03:29:36;16.90;;;11.75;;
40116;SDS011;25829;50.228;18.936;2022-10-16T03:32:36;18.02;;;12.27;;
40116;SDS011;25829;50.228;18.936;2022-10-16T03:35:37;19.05;;;12.57;;
40116;SDS011;25829;50.228;18.936;2022-10-16T03:38:38;20.65;;;13.13;;
40116;SDS011;25829;50.228;18.936;2022-10-16T03:41:38;17.92;;;13.48;;
40116;SDS011;25829;50.228;18.936;2022-10-16T03:44:39;20.67;;;13.45;;
40116;SDS011;25829;50.228;18.936;2022-10-16T03:47:40;17.92;;;13.50;;
40116;SDS011;25829;50.228;18.936;2022-10-16T03:50:41;15.48;;;12.57;;
40116;SDS011;25829;50.228;18.936;2022-10-16T03:53:42;17.10;;;12.98;;
40116;SDS011;25829;50.228;18.936;2022-10-16T03:56:43;16.90;;;12.27;;
40116;SDS011;25829;50.228;18.936;2022-10-16T03:59:43;15.75;;;11.80;;
40116;SDS011;25829;50.228;18.936;2022-10-16T04:02:44;18.15;;;12.27;;
40116;SDS011;25829;50.228;18.936;2022-10-16T04:05:45;17.77;;;12.20;;
40116;SDS011;25829;50.228;18.936;2022-10-16T04:08:46;15.95;;;11.88;;
40116;SDS011;25829;50.228;18.936;2022-10-16T04:11:46;16.77;;;12.38;;
40116;SDS011;25829;50.228;18.936;2022-10-16T04:14:47;18.08;;;12.30;;
40116;SDS011;25829;50.228;18.936;2022-10-16T04:17:48;16.75;;;13.15;;
40116;SDS011;25829;50.228;18.936;2022-10-16T04:20:49;17.02;;;12.48;;
40116;SDS011;25829;50.228;18.936;2022-10-16T04:23:49;16.85;;;13.18;;
40116;SDS011;25829;50.228;18.936;2022-10-16T04:26:50;16.23;;;12.30;;
40116;SDS011;25829;50.228;18.936;2022-10-16T04:29:51;16.45;;;13.43;;
40116;SDS011;25829;50.228;18.936;2022-10-16T04:32:52;17.00;;;12.63;;
40116;SDS011;25829;50.228;18.936;2022-10-16T04:35:56;16.55;;;12.65;;
40116;SDS011;25829;50.228;18.936;2022-10-16T04:38:58;18.45;;;12.52;;
40116;SDS011;25829;50.228;18.936;2022-10-16T04:41:58;17.33;;;12.43;;
40116;SDS011;25829;50.228;18.936;2022-10-16T04:44:59;16.63;;;11.55;;
40116;SDS011;25829;50.228;18.936;2022-10-16T04:48:00;18.40;;;12.60;;
40116;SDS011;25829;50.228;18.936;2022-10-16T04:51:00;19.90;;;16.20;;
40116;SDS011;25829;50.228;18.936;2022-10-16T04:54:01;25.27;;;16.83;;
40116;SDS011;25829;50.228;18.936;2022-10-16T04:57:02;19.73;;;16.33;;
40116;SDS011;25829;50.228;18.936;2022-10-16T05:00:03;22.27;;;15.85;;
40116;SDS011;25829;50.228;18.936;2022-10-16T05:03:04;19.58;;;14.55;;
40116;SDS011;25829;50.228;18.936;2022-10-16T05:06:07;24.17;;;15.70;;
40116;SDS011;25829;50.228;18.936;2022-10-16T05:09:08;16.75;;;13.45;;
40116;SDS011;25829;50.228;18.936;2022-10-16T05:12:09;16.52;;;13.13;;
40116;SDS011;25829;50.228;18.936;2022-10-16T05:15:11;17.73;;;12.38;;
40116;SDS011;25829;50.228;18.936;2022-10-16T05:18:12;20.47;;;13.37;;
40116;SDS011;25829;50.228;18.936;2022-10-16T05:21:12;18.08;;;12.77;;
40116;SDS011;25829;50.228;18.936;2022-10-16T05:24:13;18.87;;;13.50;;
40116;SDS011;25829;50.228;18.936;2022-10-16T05:27:14;16.60;;;12.60;;
40116;SDS011;25829;50.228;18.936;2022-10-16T05:30:19;16.45;;;12.75;;
40116;SDS011;25829;50.228;18.936;2022-10-16T05:33:20;17.77;;;12.48;;
40116;SDS011;25829;50.228;18.936;2022-10-16T05:36:22;19.20;;;13.43;;
40116;SDS011;25829;50.228;18.936;2022-10-16T05:39:22;18.52;;;13.73;;
40116;SDS011;25829;50.228;18.936;2022-10-16T05:42:23;16.48;;;12.48;;
40116;SDS011;25829;50.228;18.936;2022-10-16T05:45:24;16.40;;;13.18;;
40116;SDS011;25829;50.228;18.936;2022-10-16T05:48:25;18.80;;;13.43;;
40116;SDS011;25829;50.228;18.936;2022-10-16T05:51:26;19.67;;;14.00;;
40116;SDS011;25829;50.228;18.936;2022-10-16T05:54:27;17.65;;;13.05;;
40116;SDS011;25829;50.228;18.936;2022-10-16T05:57:27;20.63;;;15.13;;
40116;SDS011;25829;50.228;18.936;2022-10-16T06:00:28;22.48;;;17.67;;
40116;SDS011;25829;50.228;18.936;2022-10-16T06:03:29;25.98;;;23.17;;
40116;SDS011;25829;50.228;18.936;2022-10-16T06:06:30;22.90;;;17.65;;
40116;SDS011;25829;50.228;18.936;2022-10-16T06:09:31;22.17;;;15.02;;
40116;SDS011;25829;50.228;18.936;2022-10-16T06:15:56;17.20;;;14.00;;
40116;SDS011;25829;50.228;18.936;2022-10-16T06:19:00;21.38;;;15.68;;
40116;SDS011;25829;50.228;18.936;2022-10-16T06:22:03;19.65;;;14.68;;
40116;SDS011;25829;50.228;18.936;2022-10-16T06:25:04;19.15;;;13.43;;
40116;SDS011;25829;50.228;18.936;2022-10-16T06:28:05;21.58;;;16.73;;
40116;SDS011;25829;50.228;18.936;2022-10-16T06:31:07;14.25;;;12.18;;
40116;SDS011;25829;50.228;18.936;2022-10-16T06:34:09;15.10;;;13.20;;
40116;SDS011;25829;50.228;18.936;2022-10-16T06:37:11;17.65;;;15.25;;
40116;SDS011;25829;50.228;18.936;2022-10-16T06:40:12;19.52;;;14.32;;
40116;SDS011;25829;50.228;18.936;2022-10-16T06:43:14;16.48;;;14.30;;
40116;SDS011;25829;50.228;18.936;2022-10-16T06:46:21;24.90;;;18.98;;
40116;SDS011;25829;50.228;18.936;2022-10-16T06:49:24;25.33;;;18.88;;
40116;SDS011;25829;50.228;18.936;2022-10-16T06:52:27;22.95;;;17.30;;
40116;SDS011;25829;50.228;18.936;2022-10-16T06:55:28;25.88;;;18.40;;
40116;SDS011;25829;50.228;18.936;2022-10-16T06:58:29;22.00;;;16.73;;
40116;SDS011;25829;50.228;18.936;2022-10-16T07:01:30;17.48;;;14.43;;
40116;SDS011;25829;50.228;18.936;2022-10-16T07:04:32;20.65;;;13.90;;
40116;SDS011;25829;50.228;18.936;2022-10-16T07:07:32;18.88;;;12.52;;
40116;SDS011;25829;50.228;18.936;2022-10-16T07:10:33;14.63;;;12.05;;
40116;SDS011;25829;50.228;18.936;2022-10-16T07:13:34;17.83;;;10.45;;
40116;SDS011;25829;50.228;18.936;2022-10-16T07:16:36;15.18;;;10.25;;
40116;SDS011;25829;50.228;18.936;2022-10-16T07:19:37;16.60;;;10.80;;
40116;SDS011;25829;50.228;18.936;2022-10-16T07:22:37;15.82;;;10.35;;
40116;SDS011;25829;50.228;18.936;2022-10-16T07:25:38;14.05;;;9.15;;
40116;SDS011;25829;50.228;18.936;2022-10-16T07:28:39;11.43;;;7.22;;
40116;SDS011;25829;50.228;18.936;2022-10-16T07:31:40;13.52;;;7.68;;
40116;SDS011;25829;50.228;18.936;2022-10-16T07:34:41;11.13;;;7.28;;
40116;SDS011;25829;50.228;18.936;2022-10-16T07:37:45;10.18;;;7.22;;
40116;SDS011;25829;50.228;18.936;2022-10-16T07:40:46;8.65;;;7.00;;
40116;SDS011;25829;50.228;18.936;2022-10-16T07:43:48;7.70;;;6.32;;
40116;SDS011;25829;50.228;18.936;2022-10-16T07:46:51;7.45;;;6.65;;
40116;SDS011;25829;50.228;18.936;2022-10-16T07:49:51;10.38;;;6.45;;
40116;SDS011;25829;50.228;18.936;2022-10-16T07:52:52;8.80;;;6.90;;
40116;SDS011;25829;50.228;18.936;2022-10-16T07:55:56;10.82;;;6.95;;
40116;SDS011;25829;50.228;18.936;2022-10-16T07:59:01;7.72;;;6.20;;
40116;SDS011;25829;50.228;18.936;2022-10-16T08:02:02;9.80;;;7.13;;
40116;SDS011;25829;50.228;18.936;2022-10-16T08:05:02;10.00;;;7.05;;
40116;SDS011;25829;50.228;18.936;2022-10-16T08:08:03;6.93;;;6.13;;
40116;SDS011;25829;50.228;18.936;2022-10-16T08:11:04;8.95;;;6.75;;
40116;SDS011;25829;50.228;18.936;2022-10-16T08:14:05;14.25;;;7.13;;
40116;SDS011;25829;50.228;18.936;2022-10-16T08:17:06;9.70;;;6.88;;
40116;SDS011;25829;50.228;18.936;2022-10-16T08:20:07;8.85;;;7.07;;
40116;SDS011;25829;50.228;18.936;2022-10-16T08:23:09;8.25;;;7.28;;
40116;SDS011;25829;50.228;18.936;2022-10-16T08:26:13;10.98;;;7.30;;
40116;SDS011;25829;50.228;18.936;2022-10-16T08:29:14;8.50;;;6.78;;
40116;SDS011;25829;50.228;18.936;2022-10-16T08:32:15;8.10;;;6.30;;
40116;SDS011;25829;50.228;18.936;2022-10-16T08:35:16;7.32;;;6.47;;
40116;SDS011;25829;50.228;18.936;2022-10-16T08:38:17;7.05;;;6.35;;
40116;SDS011;25829;50.228;18.936;2022-10-16T08:41:41;9.20;;;6.72;;
40116;SDS011;25829;50.228;18.936;2022-10-16T08:44:47;7.72;;;6.93;;
40116;SDS011;25829;50.228;18.936;2022-10-16T08:51:31;7.50;;;6.47;;
40116;SDS011;25829;50.228;18.936;2022-10-16T08:54:41;12.25;;;6.88;;
40116;SDS011;25829;50.228;18.936;2022-10-16T08:57:46;21.60;;;16.92;;
40116;SDS011;25829;50.228;18.936;2022-10-16T09:00:53;10.10;;;7.53;;
40116;SDS011;25829;50.228;18.936;2022-10-16T09:07:17;15.68;;;12.02;;
40116;SDS011;25829;50.228;18.936;2022-10-16T09:17:01;9.00;;;7.28;;
40116;SDS011;25829;50.228;18.936;2022-10-16T09:20:34;13.32;;;7.50;;
40116;SDS011;25829;50.228;18.936;2022-10-16T09:23:49;8.73;;;6.38;;
40116;SDS011;25829;50.228;18.936;2022-10-16T09:26:50;7.97;;;6.63;;
40116;SDS011;25829;50.228;18.936;2022-10-16T09:29:52;8.57;;;6.50;;
40116;SDS011;25829;50.228;18.936;2022-10-16T09:32:53;15.48;;;9.90;;
40116;SDS011;25829;50.228;18.936;2022-10-16T09:35:55;12.27;;;8.18;;
40116;SDS011;25829;50.228;18.936;2022-10-16T09:39:03;9.07;;;7.30;;
40116;SDS011;25829;50.228;18.936;2022-10-16T09:42:05;13.15;;;8.10;;
40116;SDS011;25829;50.228;18.936;2022-10-16T09:45:19;11.15;;;7.22;;
40116;SDS011;25829;50.228;18.936;2022-10-16T09:48:22;10.93;;;7.53;;
40116;SDS011;25829;50.228;18.936;2022-10-16T09:51:35;11.13;;;6.72;;
40116;SDS011;25829;50.228;18.936;2022-10-16T09:54:37;9.70;;;7.43;;
40116;SDS011;25829;50.228;18.936;2022-10-16T09:57:48;10.23;;;7.25;;
40116;SDS011;25829;50.228;18.936;2022-10-16T10:00:52;11.27;;;6.15;;
40116;SDS011;25829;50.228;18.936;2022-10-16T10:03:55;10.10;;;7.30;;
40116;SDS011;25829;50.228;18.936;2022-10-16T10:07:02;8.52;;;6.35;;
40116;SDS011;25829;50.228;18.936;2022-10-16T10:10:04;7.30;;;6.25;;
40116;SDS011;25829;50.228;18.936;2022-10-16T10:13:19;8.23;;;6.20;;
40116;SDS011;25829;50.228;18.936;2022-10-16T10:16:24;6.78;;;6.18;;
40116;SDS011;25829;50.228;18.936;2022-10-16T10:19:26;7.82;;;6.90;;
40116;SDS011;25829;50.228;18.936;2022-10-16T10:22:41;8.05;;;6.18;;
40116;SDS011;25829;50.228;18.936;2022-10-16T10:29:20;9.55;;;6.78;;
40116;SDS011;25829;50.228;18.936;2022-10-16T10:36:39;8.23;;;6.20;;
40116;SDS011;25829;50.228;18.936;2022-10-16T10:39:48;8.52;;;5.93;;
40116;SDS011;25829;50.228;18.936;2022-10-16T10:43:04;9.55;;;6.00;;
40116;SDS011;25829;50.228;18.936;2022-10-16T10:46:29;7.70;;;5.97;;
40116;SDS011;25829;50.228;18.936;2022-10-16T10:56:09;8.13;;;5.85;;
40116;SDS011;25829;50.228;18.936;2022-10-16T11:02:35;8.98;;;6.47;;
40116;SDS011;25829;50.228;18.936;2022-10-16T11:09:25;9.20;;;6.28;;
40116;SDS011;25829;50.228;18.936;2022-10-16T11:12:34;8.52;;;6.15;;
40116;SDS011;25829;50.228;18.936;2022-10-16T11:15:39;12.43;;;6.25;;
40116;SDS011;25829;50.228;18.936;2022-10-16T11:25:16;8.43;;;6.50;;
40116;SDS011;25829;50.228;18.936;2022-10-16T11:28:25;8.10;;;6.03;;
40116;SDS011;25829;50.228;18.936;2022-10-16T11:31:38;9.18;;;6.32;;
40116;SDS011;25829;50.228;18.936;2022-10-16T11:34:47;9.00;;;6.40;;
40116;SDS011;25829;50.228;18.936;2022-10-16T11:37:52;9.43;;;5.95;;
40116;SDS011;25829;50.228;18.936;2022-10-16T11:40:57;8.43;;;6.35;;
40116;SDS011;25829;50.228;18.936;2022-10-16T11:47:45;8.70;;;6.10;;
40116;SDS011;25829;50.228;18.936;2022-10-16T11:51:25;6.68;;;5.45;;
40116;SDS011;25829;50.228;18.936;2022-10-16T11:57:47;6.50;;;5.80;;
40116;SDS011;25829;50.228;18.936;2022-10-16T12:00:54;11.50;;;5.80;;
40116;SDS011;25829;50.228;18.936;2022-10-16T12:07:38;7.47;;;5.93;;
40116;SDS011;25829;50.228;18.936;2022-10-16T12:10:47;7.00;;;6.10;;
40116;SDS011;25829;50.228;18.936;2022-10-16T12:13:49;10.02;;;6.35;;
40116;SDS011;25829;50.228;18.936;2022-10-16T12:16:50;12.52;;;5.95;;
40116;SDS011;25829;50.228;18.936;2022-10-16T12:20:00;9.50;;;5.97;;
40116;SDS011;25829;50.228;18.936;2022-10-16T12:23:21;8.82;;;6.32;;
40116;SDS011;25829;50.228;18.936;2022-10-16T12:26:30;8.98;;;6.50;;
40116;SDS011;25829;50.228;18.936;2022-10-16T12:32:39;7.88;;;6.50;;
40116;SDS011;25829;50.228;18.936;2022-10-16T12:35:43;7.63;;;6.60;;
40116;SDS011;25829;50.228;18.936;2022-10-16T12:41:59;8.35;;;6.72;;
40116;SDS011;25829;50.228;18.936;2022-10-16T12:45:13;8.40;;;7.45;;
40116;SDS011;25829;50.228;18.936;2022-10-16T12:48:25;12.85;;;7.60;;
40116;SDS011;25829;50.228;18.936;2022-10-16T13:01:02;11.27;;;7.28;;
40116;SDS011;25829;50.228;18.936;2022-10-16T13:04:21;12.77;;;6.88;;
40116;SDS011;25829;50.228;18.936;2022-10-16T13:11:05;10.70;;;7.28;;
40116;SDS011;25829;50.228;18.936;2022-10-16T13:28:13;7.60;;;6.80;;
40116;SDS011;25829;50.228;18.936;2022-10-16T13:31:21;9.15;;;6.55;;
40116;SDS011;25829;50.228;18.936;2022-10-16T13:34:24;10.20;;;6.93;;
40116;SDS011;25829;50.228;18.936;2022-10-16T13:37:25;7.70;;;6.75;;
40116;SDS011;25829;50.228;18.936;2022-10-16T13:40:27;14.23;;;6.72;;
40116;SDS011;25829;50.228;18.936;2022-10-16T13:46:38;9.68;;;6.75;;
40116;SDS011;25829;50.228;18.936;2022-10-16T13:49:39;7.78;;;6.20;;
40116;SDS011;25829;50.228;18.936;2022-10-16T13:52:40;8.55;;;6.07;;
40116;SDS011;25829;50.228;18.936;2022-10-16T13:55:41;8.00;;;6.45;;
40116;SDS011;25829;50.228;18.936;2022-10-16T13:58:42;9.30;;;6.95;;
40116;SDS011;25829;50.228;18.936;2022-10-16T14:01:44;9.27;;;6.45;;
40116;SDS011;25829;50.228;18.936;2022-10-16T14:04:45;11.07;;;7.00;;
40116;SDS011;25829;50.228;18.936;2022-10-16T14:07:48;8.80;;;6.93;;
40116;SDS011;25829;50.228;18.936;2022-10-16T14:10:55;7.78;;;6.78;;
40116;SDS011;25829;50.228;18.936;2022-10-16T14:13:58;8.75;;;6.90;;
40116;SDS011;25829;50.228;18.936;2022-10-16T14:16:59;8.18;;;7.20;;
40116;SDS011;25829;50.228;18.936;2022-10-16T14:20:01;8.07;;;7.13;;
40116;SDS011;25829;50.228;18.936;2022-10-16T14:23:28;9.43;;;7.63;;
40116;SDS011;25829;50.228;18.936;2022-10-16T14:26:30;9.30;;;7.22;;
40116;SDS011;25829;50.228;18.936;2022-10-16T14:29:42;12.63;;;8.15;;
40116;SDS011;25829;50.228;18.936;2022-10-16T14:33:44;8.60;;;6.97;;
40116;SDS011;25829;50.228;18.936;2022-10-16T14:36:40;11.07;;;7.55;;
40116;SDS011;25829;50.228;18.936;2022-10-16T14:39:41;13.27;;;8.65;;
40116;SDS011;25829;50.228;18.936;2022-10-16T14:42:42;12.55;;;7.95;;
40116;SDS011;25829;50.228;18.936;2022-10-16T14:45:49;12.95;;;8.07;;
40116;SDS011;25829;50.228;18.936;2022-10-16T14:48:54;10.95;;;8.13;;
40116;SDS011;25829;50.228;18.936;2022-10-16T14:52:18;9.50;;;7.68;;
40116;SDS011;25829;50.228;18.936;2022-10-16T14:55:19;11.93;;;9.15;;
40116;SDS011;25829;50.228;18.936;2022-10-16T14:58:21;12.70;;;10.35;;
40116;SDS011;25829;50.228;18.936;2022-10-16T15:01:23;15.95;;;8.77;;
40116;SDS011;25829;50.228;18.936;2022-10-16T15:04:24;12.18;;;8.32;;
40116;SDS011;25829;50.228;18.936;2022-10-16T15:07:25;12.10;;;7.57;;
40116;SDS011;25829;50.228;18.936;2022-10-16T15:10:27;10.93;;;8.23;;
40116;SDS011;25829;50.228;18.936;2022-10-16T15:13:29;9.35;;;7.68;;
40116;SDS011;25829;50.228;18.936;2022-10-16T15:16:30;15.93;;;11.85;;
40116;SDS011;25829;50.228;18.936;2022-10-16T15:19:31;13.30;;;10.50;;
40116;SDS011;25829;50.228;18.936;2022-10-16T15:22:32;13.63;;;10.20;;
40116;SDS011;25829;50.228;18.936;2022-10-16T15:25:37;12.98;;;9.45;;
40116;SDS011;25829;50.228;18.936;2022-10-16T15:28:41;10.07;;;8.80;;
40116;SDS011;25829;50.228;18.936;2022-10-16T15:31:42;16.27;;;10.00;;
40116;SDS011;25829;50.228;18.936;2022-10-16T15:34:43;15.70;;;10.60;;
40116;SDS011;25829;50.228;18.936;2022-10-16T15:37:44;12.88;;;10.35;;
40116;SDS011;25829;50.228;18.936;2022-10-16T15:40:46;13.60;;;9.40;;
40116;SDS011;25829;50.228;18.936;2022-10-16T15:43:48;14.27;;;9.77;;
40116;SDS011;25829;50.228;18.936;2022-10-16T15:46:50;16.20;;;10.20;;
40116;SDS011;25829;50.228;18.936;2022-10-16T15:49:51;16.77;;;11.43;;
40116;SDS011;25829;50.228;18.936;2022-10-16T15:52:51;15.20;;;10.98;;
40116;SDS011;25829;50.228;18.936;2022-10-16T15:55:52;13.93;;;11.45;;
40116;SDS011;25829;50.228;18.936;2022-10-16T15:58:53;17.38;;;13.43;;
40116;SDS011;25829;50.228;18.936;2022-10-16T16:01:54;19.00;;;13.52;;
40116;SDS011;25829;50.228;18.936;2022-10-16T16:04:55;17.65;;;13.57;;
40116;SDS011;25829;50.228;18.936;2022-10-16T16:07:56;15.88;;;12.35;;
40116;SDS011;25829;50.228;18.936;2022-10-16T16:11:01;17.00;;;13.07;;
40116;SDS011;25829;50.228;18.936;2022-10-16T16:14:03;20.80;;;14.82;;
40116;SDS011;25829;50.228;18.936;2022-10-16T16:17:05;18.25;;;12.73;;
40116;SDS011;25829;50.228;18.936;2022-10-16T16:20:06;19.50;;;15.73;;
40116;SDS011;25829;50.228;18.936;2022-10-16T16:23:07;23.20;;;17.58;;
40116;SDS011;25829;50.228;18.936;2022-10-16T16:26:12;21.90;;;16.95;;
40116;SDS011;25829;50.228;18.936;2022-10-16T16:29:15;29.25;;;18.15;;
40116;SDS011;25829;50.228;18.936;2022-10-16T16:32:16;22.73;;;16.83;;
40116;SDS011;25829;50.228;18.936;2022-10-16T16:35:17;24.50;;;15.82;;
40116;SDS011;25829;50.228;18.936;2022-10-16T16:38:17;32.60;;;21.85;;
40116;SDS011;25829;50.228;18.936;2022-10-16T16:41:19;36.95;;;25.75;;
40116;SDS011;25829;50.228;18.936;2022-10-16T16:44:22;44.97;;;29.50;;
40116;SDS011;25829;50.228;18.936;2022-10-16T16:47:22;33.33;;;24.63;;
40116;SDS011;25829;50.228;18.936;2022-10-16T16:50:23;37.90;;;26.83;;
40116;SDS011;25829;50.228;18.936;2022-10-16T16:53:24;40.92;;;25.58;;
40116;SDS011;25829;50.228;18.936;2022-10-16T16:56:25;19.02;;;14.20;;
40116;SDS011;25829;50.228;18.936;2022-10-16T16:59:26;18.00;;;12.50;;
40116;SDS011;25829;50.228;18.936;2022-10-16T17:02:27;19.27;;;12.55;;
40116;SDS011;25829;50.228;18.936;2022-10-16T17:05:28;28.05;;;18.63;;
40116;SDS011;25829;50.228;18.936;2022-10-16T17:08:28;26.98;;;17.88;;
40116;SDS011;25829;50.228;18.936;2022-10-16T17:11:30;27.70;;;19.17;;
40116;SDS011;25829;50.228;18.936;2022-10-16T17:14:31;22.13;;;16.05;;
40116;SDS011;25829;50.228;18.936;2022-10-16T17:17:32;24.70;;;16.52;;
40116;SDS011;25829;50.228;18.936;2022-10-16T17:20:35;24.95;;;15.70;;
40116;SDS011;25829;50.228;18.936;2022-10-16T17:23:36;19.95;;;14.50;;
40116;SDS011;25829;50.228;18.936;2022-10-16T17:26:37;19.58;;;13.40;;
40116;SDS011;25829;50.228;18.936;2022-10-16T17:29:40;24.23;;;13.35;;
40116;SDS011;25829;50.228;18.936;2022-10-16T17:32:41;19.70;;;13.32;;
40116;SDS011;25829;50.228;18.936;2022-10-16T17:35:43;18.08;;;13.20;;
40116;SDS011;25829;50.228;18.936;2022-10-16T17:38:45;18.73;;;13.45;;
40116;SDS011;25829;50.228;18.936;2022-10-16T17:41:46;22.85;;;16.27;;
40116;SDS011;25829;50.228;18.936;2022-10-16T17:44:47;21.23;;;15.00;;
40116;SDS011;25829;50.228;18.936;2022-10-16T17:47:48;21.55;;;14.07;;
40116;SDS011;25829;50.228;18.936;2022-10-16T17:50:49;20.63;;;12.63;;
40116;SDS011;25829;50.228;18.936;2022-10-16T17:53:54;20.67;;;14.10;;
40116;SDS011;25829;50.228;18.936;2022-10-16T17:56:56;21.02;;;13.98;;
40116;SDS011;25829;50.228;18.936;2022-10-16T17:59:57;22.17;;;14.57;;
40116;SDS011;25829;50.228;18.936;2022-10-16T18:02:58;25.83;;;16.33;;
40116;SDS011;25829;50.228;18.936;2022-10-16T18:06:00;18.35;;;15.27;;
40116;SDS011;25829;50.228;18.936;2022-10-16T18:09:01;21.02;;;15.40;;
40116;SDS011;25829;50.228;18.936;2022-10-16T18:12:03;20.80;;;15.00;;
40116;SDS011;25829;50.228;18.936;2022-10-16T18:15:04;21.98;;;18.20;;
40116;SDS011;25829;50.228;18.936;2022-10-16T18:18:05;24.38;;;18.35;;
40116;SDS011;25829;50.228;18.936;2022-10-16T18:21:07;26.33;;;20.88;;
40116;SDS011;25829;50.228;18.936;2022-10-16T18:24:10;45.60;;;30.38;;
40116;SDS011;25829;50.228;18.936;2022-10-16T18:27:11;53.45;;;32.75;;
40116;SDS011;25829;50.228;18.936;2022-10-16T18:30:12;43.88;;;30.25;;
40116;SDS011;25829;50.228;18.936;2022-10-16T18:33:13;31.00;;;20.40;;
40116;SDS011;25829;50.228;18.936;2022-10-16T18:36:14;29.95;;;21.88;;
40116;SDS011;25829;50.228;18.936;2022-10-16T18:39:17;24.50;;;18.02;;
40116;SDS011;25829;50.228;18.936;2022-10-16T18:42:20;23.33;;;17.15;;
40116;SDS011;25829;50.228;18.936;2022-10-16T18:45:21;21.00;;;16.35;;
40116;SDS011;25829;50.228;18.936;2022-10-16T18:48:22;29.35;;;18.13;;
40116;SDS011;25829;50.228;18.936;2022-10-16T18:51:27;24.73;;;18.52;;
40116;SDS011;25829;50.228;18.936;2022-10-16T18:54:32;26.85;;;18.85;;
40116;SDS011;25829;50.228;18.936;2022-10-16T18:57:33;25.23;;;18.25;;
40116;SDS011;25829;50.228;18.936;2022-10-16T19:00:34;29.25;;;19.08;;
40116;SDS011;25829;50.228;18.936;2022-10-16T19:03:35;28.15;;;18.35;;
40116;SDS011;25829;50.228;18.936;2022-10-16T19:06:37;22.38;;;18.98;;
40116;SDS011;25829;50.228;18.936;2022-10-16T19:09:39;21.33;;;16.95;;
40116;SDS011;25829;50.228;18.936;2022-10-16T19:12:41;27.70;;;18.77;;
40116;SDS011;25829;50.228;18.936;2022-10-16T19:15:41;27.95;;;18.80;;
40116;SDS011;25829;50.228;18.936;2022-10-16T19:18:42;26.27;;;17.17;;
40116;SDS011;25829;50.228;18.936;2022-10-16T19:21:43;24.88;;;18.00;;
40116;SDS011;25829;50.228;18.936;2022-10-16T19:24:44;31.67;;;21.80;;
40116;SDS011;25829;50.228;18.936;2022-10-16T19:27:45;30.17;;;23.23;;
40116;SDS011;25829;50.228;18.936;2022-10-16T19:30:46;25.63;;;19.27;;
40116;SDS011;25829;50.228;18.936;2022-10-16T19:33:51;24.17;;;17.65;;
40116;SDS011;25829;50.228;18.936;2022-10-16T19:36:52;23.50;;;17.70;;
40116;SDS011;25829;50.228;18.936;2022-10-16T19:39:53;24.30;;;18.25;;